createdAt,value
2023-11-23T01:09:24.311Z,101215.59
2023-11-23T01:11:17.726Z,101225.84
2023-11-23T01:13:13.284Z,101230.00
2023-11-23T01:15:07.354Z,101224.66
2023-11-23T01:17:04.045Z,101234.94
2023-11-23T01:18:59.071Z,101231.31
2023-11-23T01:20:54.731Z,101221.78
2023-11-23T01:22:50.104Z,101199.19
2023-11-23T01:24:48.634Z,101194.69
2023-11-23T01:26:44.312Z,101181.56
2023-11-23T01:28:37.433Z,101207.53
2023-11-23T01:30:32.812Z,101204.78
2023-11-23T01:32:28.881Z,101195.19
2023-11-23T01:34:21.805Z,101210.66
2023-11-23T01:36:20.414Z,101187.25
2023-11-23T01:38:16.176Z,101184.59
2023-11-23T01:40:15.509Z,101178.47
2023-11-23T01:42:11.141Z,101175.88
2023-11-23T01:44:07.045Z,101170.59
2023-11-23T01:45:59.667Z,101172.28
2023-11-23T01:47:55.394Z,101165.34
2023-11-23T01:49:52.014Z,101170.28
2023-11-23T01:51:48.284Z,101144.28
2023-11-23T01:53:43.742Z,101159.78
2023-11-23T01:55:42.295Z,101156.28
2023-11-23T01:57:39.847Z,101156.13
2023-11-23T01:59:35.755Z,101163.81
2023-11-23T02:46:58.709Z,101068.84
2023-11-23T02:48:51.703Z,101080.78
2023-11-23T02:50:46.913Z,101067.63
2023-11-23T02:52:42.286Z,101072.72
2023-11-23T02:54:37.378Z,101070.88
2023-11-23T02:56:33.057Z,101073.47
2023-11-23T02:58:25.510Z,101068.13
2023-11-23T03:00:22.173Z,101074.09
2023-11-23T03:02:20.173Z,101067.06
2023-11-23T03:04:50.202Z,101066.13
2023-11-23T03:06:45.623Z,101061.59
2023-11-23T03:08:38.712Z,101063.09
2023-11-23T03:10:33.942Z,101053.38
2023-11-23T03:12:30.190Z,101062.78
2023-11-23T03:14:25.403Z,101056.56
2023-11-23T03:16:21.053Z,101046.00
2023-11-23T03:18:19.395Z,101045.06
2023-11-23T03:20:12.528Z,101046.59
2023-11-23T03:22:08.551Z,101035.16
2023-11-23T03:24:01.627Z,101029.78
2023-11-23T03:25:56.720Z,101032.22
2023-11-23T03:27:52.333Z,101022.56
2023-11-23T03:29:47.824Z,101023.41
2023-11-23T03:31:47.252Z,101025.94
2023-11-23T03:33:51.928Z,101024.00
2023-11-23T03:35:47.792Z,101019.47
2023-11-23T03:37:40.450Z,101020.13
2023-11-23T03:39:35.902Z,101016.50
2023-11-23T03:41:31.180Z,101034.66
2023-11-23T03:43:27.077Z,101011.06
2023-11-23T03:45:22.469Z,101025.75
2023-11-23T03:47:18.112Z,101015.16
2023-11-23T03:49:16.037Z,101001.09
2023-11-23T03:51:15.500Z,100999.25
2023-11-23T03:53:08.224Z,101007.84
2023-11-23T03:55:04.115Z,101001.59
2023-11-23T03:56:59.974Z,100989.34
2023-11-23T03:58:58.378Z,100983.94
2023-11-23T04:01:04.050Z,100975.03
2023-11-23T04:03:00.366Z,100977.47
2023-11-23T04:04:56.166Z,100973.09
2023-11-23T04:06:51.983Z,100988.81
2023-11-23T04:08:44.687Z,100972.91
2023-11-23T04:10:40.278Z,100971.91
2023-11-23T04:12:32.825Z,100985.66
2023-11-23T04:14:29.330Z,100975.16
2023-11-23T04:16:24.771Z,100971.28
2023-11-23T04:18:17.759Z,100983.06
2023-11-23T04:20:17.142Z,100964.03
2023-11-23T04:22:12.801Z,100989.81
2023-11-23T04:24:05.972Z,100976.59
2023-11-23T04:26:01.731Z,100975.56
2023-11-23T04:27:57.205Z,100967.66
2023-11-23T04:29:53.321Z,100993.59
2023-11-23T04:31:53.170Z,100956.78
2023-11-23T04:33:51.683Z,100968.22
2023-11-23T04:35:51.685Z,100962.81
2023-11-23T04:37:50.485Z,100964.69
2023-11-23T04:39:43.351Z,100954.81
2023-11-23T04:41:39.452Z,100955.34
2023-11-23T04:43:34.997Z,100956.22
2023-11-23T04:45:28.065Z,100961.03
2023-11-23T04:47:26.269Z,100943.47
2023-11-23T04:49:19.608Z,100934.78
2023-11-23T04:51:21.618Z,100933.03
2023-11-23T04:53:19.181Z,100928.84
2023-11-23T04:55:14.572Z,100925.22
2023-11-23T04:57:15.627Z,100940.84
2023-11-23T04:59:10.812Z,100932.09
2023-11-23T05:01:03.950Z,100933.59
2023-11-23T05:02:59.213Z,100944.84
2023-11-23T05:04:52.268Z,100930.78
2023-11-23T05:06:53.121Z,100923.69
2023-11-23T05:08:52.254Z,100927.03
2023-11-23T05:10:48.892Z,100925.09
2023-11-23T05:15:45.330Z,100917.09
2023-11-23T05:17:39.083Z,100915.13
2023-11-23T05:19:57.650Z,100908.03
2023-11-23T05:32:27.044Z,100908.94
2023-11-23T05:35:15.975Z,100914.88
2023-11-23T05:37:56.495Z,100922.97
2023-11-23T05:40:28.570Z,100931.44
2023-11-23T05:42:50.841Z,100910.25
2023-11-23T05:45:09.419Z,100908.28
2023-11-23T05:47:10.891Z,100917.59
2023-11-23T05:49:15.172Z,100901.22
2023-11-23T05:51:25.131Z,100906.03
2023-11-23T05:56:26.848Z,100883.19
2023-11-23T06:11:01.582Z,100860.91
2023-11-23T06:13:23.082Z,100871.84
2023-11-23T06:15:32.412Z,100865.38
2023-11-23T06:17:31.025Z,100856.41
2023-11-23T06:19:27.420Z,100858.69
2023-11-23T06:21:31.944Z,100874.47
2023-11-23T06:23:36.781Z,100882.31
2023-11-23T06:25:34.988Z,100881.38
2023-11-23T06:27:33.748Z,100874.78
2023-11-23T06:29:42.762Z,100880.63
2023-11-23T06:31:41.050Z,100863.16
2023-11-23T06:33:33.752Z,100861.28
2023-11-23T06:35:29.453Z,100880.94
2023-11-23T06:37:22.050Z,100859.94
2023-11-23T06:39:25.385Z,100862.75
2023-11-23T06:41:22.699Z,100867.97
2023-11-23T06:43:16.345Z,100881.88
2023-11-23T06:45:17.972Z,100850.53
2023-11-23T06:47:16.493Z,100855.97
2023-11-23T06:49:12.127Z,100846.34
2023-11-23T06:51:05.174Z,100866.50
2023-11-23T06:53:00.332Z,100833.50
2023-11-23T06:54:56.050Z,100832.47
2023-11-23T06:56:51.635Z,100848.22
2023-11-23T06:58:49.093Z,100848.22
2023-11-23T07:00:43.627Z,100830.16
2023-11-23T07:02:45.314Z,100838.00
2023-11-23T07:04:40.766Z,100831.09
2023-11-23T07:06:37.129Z,100819.84
2023-11-23T07:08:29.858Z,100849.50
2023-11-23T07:10:25.501Z,100838.13
2023-11-23T07:12:18.264Z,100835.50
2023-11-23T07:14:14.186Z,100823.28
2023-11-23T07:16:11.056Z,100819.13
2023-11-23T07:18:09.616Z,100817.22
2023-11-23T07:20:02.370Z,100839.78
2023-11-23T07:21:58.214Z,100811.88
2023-11-23T07:23:53.780Z,100818.78
2023-11-23T07:25:57.284Z,100810.13
2023-11-23T07:27:50.443Z,100824.84
2023-11-23T07:29:46.558Z,100794.22
2023-11-23T07:31:44.960Z,100791.41
2023-11-23T07:33:45.254Z,100775.81
2023-11-23T07:35:43.910Z,100803.50
2023-11-23T07:37:37.258Z,100796.53
2023-11-23T07:39:32.863Z,100773.84
2023-11-23T07:41:30.871Z,100785.13
2023-11-23T07:43:23.589Z,100781.38
2023-11-23T07:45:19.870Z,100774.47
2023-11-23T07:47:20.325Z,100771.84
2023-11-23T07:49:21.706Z,100780.63
2023-11-23T07:51:19.042Z,100771.84
2023-11-23T07:53:34.253Z,100770.06
2023-11-23T07:55:44.460Z,100752.72
2023-11-23T07:57:59.087Z,100763.91
2023-11-23T08:00:40.467Z,100745.75
2023-11-23T08:02:46.798Z,100744.34
2023-11-23T08:05:35.161Z,100770.25
2023-11-23T08:07:33.478Z,100744.13
2023-11-23T08:09:29.309Z,100742.22
2023-11-23T08:11:25.333Z,100702.81
2023-11-23T08:13:21.568Z,100733.94
2023-11-23T08:15:17.900Z,100720.06
2023-11-23T08:17:14.121Z,100723.28
2023-11-23T08:19:09.848Z,100735.38
2023-11-23T08:21:25.364Z,100724.63
2023-11-23T08:23:25.662Z,100719.06
2023-11-23T08:25:22.430Z,100758.03
2023-11-23T08:27:18.177Z,100726.44
2023-11-23T08:29:13.702Z,100718.28
2023-11-23T08:31:11.301Z,100721.63
2023-11-23T08:33:07.220Z,100714.25
2023-11-23T08:35:04.745Z,100726.28
2023-11-23T08:37:00.300Z,100711.31
2023-11-23T08:38:58.498Z,100705.72
2023-11-23T08:40:51.565Z,100697.78
2023-11-23T08:42:47.215Z,100690.41
2023-11-23T08:44:42.505Z,100711.09
2023-11-23T08:46:39.822Z,100691.63
2023-11-23T08:48:35.255Z,100712.44
2023-11-23T08:50:31.638Z,100692.09
2023-11-23T08:52:25.413Z,100681.53
2023-11-23T08:54:24.237Z,100683.34
2023-11-23T08:56:19.617Z,100683.19
2023-11-23T08:58:12.725Z,100679.63
2023-11-23T09:00:11.780Z,100683.91
2023-11-23T09:02:17.003Z,100671.56
2023-11-23T09:04:16.301Z,100674.06
2023-11-23T09:06:12.795Z,100666.94
2023-11-23T09:08:09.397Z,100660.03
2023-11-23T09:10:08.536Z,100685.97
2023-11-23T09:12:03.985Z,100690.34
2023-11-23T09:13:57.201Z,100676.44
2023-11-23T09:15:52.613Z,100649.44
2023-11-23T09:17:45.524Z,100643.25
2023-11-23T09:19:41.342Z,100642.19
2023-11-23T09:21:37.409Z,100642.19
2023-11-23T09:23:32.978Z,100656.94
2023-11-23T09:25:31.174Z,100636.72
2023-11-23T09:27:26.405Z,100642.91
2023-11-23T09:29:19.332Z,100654.09
2023-11-23T09:31:19.502Z,100638.88
2023-11-23T09:33:13.421Z,100630.91
2023-11-23T09:35:11.846Z,100619.50
2023-11-23T09:37:05.013Z,100610.09
2023-11-23T09:39:01.880Z,100612.13
2023-11-23T09:41:00.254Z,100605.22
2023-11-23T09:42:55.464Z,100606.28
2023-11-23T09:44:56.044Z,100620.09
2023-11-23T09:46:52.041Z,100611.28
2023-11-23T09:48:48.631Z,100605.09
2023-11-23T09:50:44.406Z,100604.16
2023-11-23T09:52:40.706Z,100588.44
2023-11-23T09:54:36.644Z,100589.88
2023-11-23T09:56:35.146Z,100583.56
2023-11-23T09:58:30.778Z,100581.66
2023-11-23T10:00:26.433Z,100582.28
2023-11-23T10:02:23.295Z,100555.97
2023-11-23T10:04:19.951Z,100556.81
2023-11-23T10:06:15.452Z,100566.09
2023-11-23T10:08:11.348Z,100553.81
2023-11-23T10:10:06.826Z,100557.88
2023-11-23T10:12:06.301Z,100539.41
2023-11-23T10:13:58.940Z,100540.00
2023-11-23T10:15:54.457Z,100538.34
2023-11-23T10:17:48.758Z,100535.50
2023-11-23T10:19:44.287Z,100531.78
2023-11-23T10:21:40.170Z,100549.88
2023-11-23T10:23:35.600Z,100524.00
2023-11-23T10:25:33.434Z,100521.66
2023-11-23T10:27:32.111Z,100529.16
2023-11-23T10:29:30.142Z,100486.16
2023-11-23T10:31:25.784Z,100522.94
2023-11-23T10:33:24.212Z,100499.97
2023-11-23T10:35:17.697Z,100500.09
2023-11-23T10:37:17.846Z,100490.69
2023-11-23T10:39:16.797Z,100501.16
2023-11-23T10:41:10.564Z,100490.56
2023-11-23T10:43:10.697Z,100487.97
2023-11-23T10:45:06.071Z,100488.06
2023-11-23T10:47:04.945Z,100482.13
2023-11-23T10:49:00.256Z,100462.03
2023-11-23T10:50:57.892Z,100478.44
2023-11-23T10:52:58.658Z,100463.69
2023-11-23T10:54:51.616Z,100462.72
2023-11-23T10:56:48.160Z,100481.88
2023-11-23T10:58:49.057Z,100455.84
2023-11-23T11:00:42.745Z,100431.31
2023-11-23T11:02:40.131Z,100467.00
2023-11-23T11:04:32.845Z,100452.84
2023-11-23T11:06:29.654Z,100443.91
2023-11-23T11:08:22.492Z,100448.31
2023-11-23T11:10:17.897Z,100440.31
2023-11-23T11:12:14.584Z,100423.66
2023-11-23T11:14:14.831Z,100418.84
2023-11-23T11:16:11.330Z,100417.78
2023-11-23T11:18:08.209Z,100420.31
2023-11-23T11:20:10.673Z,100424.72
2023-11-23T11:22:05.848Z,100416.75
2023-11-23T11:24:01.338Z,100422.53
2023-11-23T11:25:54.278Z,100414.41
2023-11-23T11:27:49.737Z,100427.50
2023-11-23T11:29:53.144Z,100406.44
2023-11-23T11:31:51.856Z,100419.66
2023-11-23T11:33:44.478Z,100404.66
2023-11-23T11:35:49.470Z,100410.47
2023-11-23T11:37:46.520Z,100400.69
2023-11-23T11:39:42.692Z,100385.13
2023-11-23T11:41:38.944Z,100382.50
2023-11-23T11:43:35.806Z,100393.69
2023-11-23T11:45:31.459Z,100370.91
2023-11-23T11:47:28.931Z,100376.84
2023-11-23T11:49:24.110Z,100382.66
2023-11-23T11:51:19.532Z,100366.09
2023-11-23T11:53:12.556Z,100371.34
2023-11-23T11:55:09.223Z,100359.78
2023-11-23T11:57:05.880Z,100370.13
2023-11-23T11:59:04.634Z,100346.31
2023-11-23T12:01:01.055Z,100369.03
2023-11-23T12:02:56.296Z,100358.44
2023-11-23T12:05:01.250Z,100331.72
2023-11-23T12:06:54.451Z,100323.00
2023-11-23T12:08:51.092Z,100322.88
2023-11-23T12:10:46.972Z,100344.81
2023-11-23T12:12:49.276Z,100309.78
2023-11-23T12:14:42.192Z,100319.31
2023-11-23T12:16:40.519Z,100317.50
2023-11-23T12:18:36.589Z,100334.19
2023-11-23T12:20:42.893Z,100319.16
2023-11-23T12:22:38.345Z,100310.38
2023-11-23T12:24:34.176Z,100319.88
2023-11-23T12:26:27.003Z,100328.72
2023-11-23T12:28:23.167Z,100315.59
2023-11-23T12:30:19.196Z,100312.72
2023-11-23T12:32:15.011Z,100304.00
2023-11-23T12:34:10.506Z,100298.78
2023-11-23T12:36:05.973Z,100309.41
2023-11-23T12:38:02.065Z,100296.28
2023-11-23T12:39:58.751Z,100317.13
2023-11-23T12:41:55.190Z,100298.50
2023-11-23T12:43:51.029Z,100282.94
2023-11-23T12:45:47.590Z,100292.56
2023-11-23T12:47:43.320Z,100295.06
2023-11-23T12:49:39.125Z,100279.47
2023-11-23T12:51:34.733Z,100268.00
2023-11-23T12:53:31.037Z,100280.03
2023-11-23T12:55:23.489Z,100272.97
2023-11-23T12:57:19.276Z,100261.53
2023-11-23T12:59:14.314Z,100266.78
2023-11-23T13:01:07.255Z,100266.50
2023-11-23T13:03:05.866Z,100260.31
2023-11-23T13:05:01.507Z,100257.00
2023-11-23T13:06:58.714Z,100255.06
2023-11-23T13:08:54.264Z,100241.13
2023-11-23T13:10:49.649Z,100237.44
2023-11-23T13:12:43.199Z,100246.78
2023-11-23T13:14:38.861Z,100235.22
2023-11-23T13:16:34.277Z,100240.03
2023-11-23T13:18:50.853Z,100214.97
2023-11-23T13:20:46.570Z,100221.28
2023-11-23T13:22:42.553Z,100204.59
2023-11-23T13:24:39.837Z,100226.81
2023-11-23T13:26:35.632Z,100193.69
2023-11-23T13:28:31.023Z,100196.03
2023-11-23T13:30:26.665Z,100199.19
2023-11-23T13:32:23.211Z,100178.75
2023-11-23T13:34:23.263Z,100178.97
2023-11-23T13:36:16.140Z,100174.66
2023-11-23T13:38:12.088Z,100167.97
2023-11-23T13:40:10.868Z,100188.44
2023-11-23T13:42:06.252Z,100168.44
2023-11-23T13:43:59.778Z,100177.97
2023-11-23T13:45:55.130Z,100156.22
2023-11-23T13:47:51.751Z,100156.22
2023-11-23T13:49:46.839Z,100155.25
2023-11-23T13:51:42.240Z,100149.09
2023-11-23T13:53:37.498Z,100143.00
2023-11-23T13:55:33.262Z,100132.03
2023-11-23T13:57:28.715Z,100122.19
2023-11-23T13:59:24.352Z,100124.69
2023-11-23T14:01:19.774Z,100124.38
2023-11-23T14:03:16.360Z,100128.00
2023-11-23T14:05:11.806Z,100113.88
2023-11-23T14:07:08.588Z,100138.75
2023-11-23T14:09:02.928Z,100103.13
2023-11-23T14:10:58.854Z,100102.44
2023-11-23T14:12:52.415Z,100105.06
2023-11-23T14:14:49.468Z,100115.59
2023-11-23T14:16:44.692Z,100099.31
2023-11-23T14:18:43.073Z,100109.50
2023-11-23T14:20:44.407Z,100092.63
2023-11-23T14:22:40.077Z,100093.75
2023-11-23T14:24:32.686Z,100085.84
2023-11-23T14:26:28.317Z,100095.25
2023-11-23T14:28:23.454Z,100082.19
2023-11-23T14:30:22.974Z,100068.44
2023-11-23T14:32:18.621Z,100077.28
2023-11-23T14:34:14.046Z,100088.47
2023-11-23T14:36:13.940Z,100075.03
2023-11-23T14:38:12.313Z,100068.97
2023-11-23T14:40:15.032Z,100070.44
2023-11-23T14:42:12.699Z,100056.16
2023-11-23T14:44:08.881Z,100060.00
2023-11-23T14:46:04.850Z,100061.63
2023-11-23T14:47:57.644Z,100083.13
2023-11-23T14:49:53.394Z,100065.41
2023-11-23T14:51:53.208Z,100056.84
2023-11-23T14:53:52.085Z,100062.91
2023-11-23T14:55:51.542Z,100036.59
2023-11-23T14:57:47.450Z,100048.28
2023-11-23T14:59:44.164Z,100066.06
2023-11-23T15:01:40.265Z,100022.69
2023-11-23T15:03:36.399Z,100004.94
2023-11-23T15:05:33.832Z,100000.31
2023-11-23T15:07:45.791Z,100020.56
2023-11-23T15:09:42.394Z,99988.19
2023-11-23T15:11:38.166Z,99967.13
2023-11-23T15:13:39.410Z,99967.13
2023-11-23T15:15:37.996Z,99985.41
2023-11-23T15:17:33.886Z,99930.50
2023-11-23T15:19:36.438Z,99987.72
2023-11-23T15:21:35.404Z,99987.41
2023-11-23T15:23:35.693Z,99970.63
2023-11-23T15:25:31.420Z,99960.78
2023-11-23T15:27:30.357Z,99968.31
2023-11-23T15:29:26.220Z,99931.16
2023-11-23T15:31:21.937Z,99909.81
2023-11-23T15:33:17.014Z,99931.50
2023-11-23T15:35:17.392Z,99923.63
2023-11-23T15:37:13.026Z,99921.81
2023-11-23T15:39:12.515Z,99909.47
2023-11-23T15:41:12.293Z,99891.91
2023-11-23T15:43:09.389Z,99921.81
2023-11-23T15:45:02.261Z,99899.47
2023-11-23T15:46:57.557Z,99884.34
2023-11-23T15:48:53.132Z,99889.47
2023-11-23T15:50:47.420Z,99883.03
2023-11-23T15:52:42.861Z,99888.81
2023-11-23T15:54:40.592Z,99861.66
2023-11-23T15:56:37.901Z,99861.16
2023-11-23T15:58:33.381Z,99860.84
2023-11-23T16:00:30.968Z,99864.94
2023-11-23T16:02:26.170Z,99828.75
2023-11-23T16:04:22.454Z,99828.94
2023-11-23T16:06:15.290Z,99831.56
2023-11-23T16:08:11.122Z,99850.81
2023-11-23T16:10:10.831Z,99822.03
2023-11-23T16:12:07.040Z,99809.53
2023-11-23T16:14:02.223Z,99817.94
2023-11-23T16:15:58.702Z,99851.50
2023-11-23T16:17:52.054Z,99813.84
2023-11-23T16:19:47.534Z,99807.72
2023-11-23T16:21:43.300Z,99802.94
2023-11-23T16:23:39.165Z,99822.22
2023-11-23T16:25:36.996Z,99761.84
2023-11-23T16:27:30.184Z,99789.81
2023-11-23T16:29:25.311Z,99803.44
2023-11-23T16:31:20.908Z,99789.28
2023-11-23T16:33:13.653Z,99795.53
2023-11-23T16:35:12.564Z,99779.75
2023-11-23T16:37:07.786Z,99786.50
2023-11-23T16:39:05.819Z,99752.44
2023-11-23T16:41:03.591Z,99746.19
2023-11-23T16:42:59.247Z,99746.81
2023-11-23T16:44:54.359Z,99749.97
2023-11-23T16:46:47.693Z,99741.91
2023-11-23T16:48:43.080Z,99743.22
2023-11-23T16:50:38.786Z,99747.50
2023-11-23T16:52:34.618Z,99720.97
2023-11-23T16:54:37.036Z,99762.63
2023-11-23T16:56:33.926Z,99720.31
2023-11-23T16:58:34.607Z,99700.41
2023-11-23T17:00:33.124Z,99695.44
2023-11-23T17:02:43.017Z,99682.94
2023-11-23T17:04:38.450Z,99692.47
2023-11-23T17:06:39.896Z,99651.97
2023-11-23T17:08:35.291Z,99683.75
2023-11-23T17:10:31.102Z,99650.19
2023-11-23T17:12:28.994Z,99668.97
2023-11-23T17:14:25.140Z,99657.09
2023-11-23T17:16:20.848Z,99674.88
2023-11-23T17:18:17.380Z,99651.47
2023-11-23T17:20:14.253Z,99632.88
2023-11-23T17:22:18.721Z,99622.16
2023-11-23T17:24:11.538Z,99617.19
2023-11-23T17:26:10.382Z,99612.75
2023-11-23T17:28:20.597Z,99589.19
2023-11-23T17:30:16.719Z,99630.53
2023-11-23T17:32:12.285Z,99621.81
2023-11-23T17:34:09.256Z,99639.13
2023-11-23T17:36:06.259Z,99614.44
2023-11-23T17:38:02.151Z,99617.72
2023-11-23T17:39:56.093Z,99608.63
2023-11-23T17:41:52.261Z,99615.19
2023-11-23T17:43:52.438Z,99626.25
2023-11-23T17:45:48.996Z,99592.81
2023-11-23T17:47:46.134Z,99600.34
2023-11-23T17:49:42.043Z,99621.25
2023-11-23T17:51:41.136Z,99600.00
2023-11-23T17:53:38.302Z,99567.03
2023-11-23T17:55:35.660Z,99566.03
2023-11-23T17:57:34.147Z,99581.50
2023-11-23T17:59:43.608Z,99554.50
2023-11-23T18:01:43.396Z,99576.94
2023-11-23T18:03:38.677Z,99562.28
2023-11-23T18:05:39.985Z,99560.66
2023-11-23T18:07:35.913Z,99547.19
2023-11-23T18:09:31.556Z,99550.19
2023-11-23T18:11:27.198Z,99573.22
2023-11-23T18:13:20.113Z,99523.63
2023-11-23T18:15:18.558Z,99539.34
2023-11-23T18:17:13.053Z,99556.81
2023-11-23T18:19:09.699Z,99553.38
2023-11-23T18:21:07.737Z,99531.66
2023-11-23T18:23:27.416Z,99547.50
2023-11-23T18:25:53.184Z,99523.16
2023-11-23T18:27:49.006Z,99532.53
2023-11-23T18:29:46.149Z,99498.34
2023-11-23T18:31:52.443Z,99521.41
2023-11-23T18:33:53.399Z,99535.56
2023-11-23T18:35:48.852Z,99517.97
2023-11-23T18:37:44.583Z,99507.47
2023-11-23T18:39:37.283Z,99497.91
2023-11-23T18:41:35.337Z,99527.56
2023-11-23T18:43:39.660Z,99539.41
2023-11-23T18:45:36.777Z,99489.75
2023-11-23T18:47:43.242Z,99496.19
2023-11-23T18:49:43.465Z,99484.19
2023-11-23T18:51:42.489Z,99544.91
2023-11-23T18:53:54.917Z,99531.91
2023-11-23T18:55:55.022Z,99505.59
2023-11-23T18:57:54.491Z,99484.38
2023-11-23T19:00:03.787Z,99503.78
2023-11-23T19:02:21.446Z,99482.09
2023-11-23T19:04:19.720Z,99492.06
2023-11-23T19:06:15.307Z,99481.69
2023-11-23T19:08:17.897Z,99492.88
2023-11-23T19:10:26.779Z,99470.81
2023-11-23T19:12:29.580Z,99477.72
2023-11-23T19:14:34.534Z,99483.16
2023-11-23T19:16:33.238Z,99483.47
2023-11-23T19:18:44.314Z,99475.56
2023-11-23T19:20:43.303Z,99431.81
2023-11-23T19:22:39.251Z,99453.88
2023-11-23T19:24:38.939Z,99463.41
2023-11-23T19:26:35.947Z,99451.75
2023-11-23T19:28:31.812Z,99451.25
2023-11-23T19:30:32.269Z,99455.44
2023-11-23T19:32:38.094Z,99454.94
2023-11-23T19:34:51.018Z,99468.09
2023-11-23T19:36:53.055Z,99455.59
2023-11-23T19:38:53.749Z,99449.31
2023-11-23T19:40:50.955Z,99457.22
2023-11-23T19:42:45.479Z,99461.50
2023-11-23T19:44:51.163Z,99473.19
2023-11-23T19:47:28.648Z,99462.00
2023-11-23T19:49:26.892Z,99507.72
2023-11-23T19:51:30.636Z,99534.88
2023-11-23T19:53:31.598Z,99508.69
2023-11-23T19:55:30.180Z,99520.22
2023-11-23T19:57:26.496Z,99530.78
2023-11-23T19:59:22.547Z,99512.66
2023-11-23T20:01:19.595Z,99548.81
2023-11-23T20:03:17.494Z,99541.41
2023-11-23T20:05:15.443Z,99542.22
2023-11-23T20:07:12.581Z,99536.31
2023-11-23T20:09:11.703Z,99546.34
2023-11-23T20:14:29.693Z,99547.16
2023-11-23T20:16:33.591Z,99553.88
2023-11-23T20:18:32.282Z,99559.75
2023-11-23T20:20:35.191Z,99558.28
2023-11-23T20:22:37.875Z,99555.00
2023-11-23T20:24:39.379Z,99558.13
2023-11-23T20:26:32.557Z,99549.72
2023-11-23T20:28:31.530Z,99563.00
2023-11-23T20:30:54.695Z,99563.50
2023-11-23T20:32:59.237Z,99548.88
2023-11-23T20:34:56.936Z,99548.56
2023-11-23T20:36:56.007Z,99561.00
2023-11-23T20:38:54.980Z,99552.81
2023-11-23T20:41:01.582Z,99535.25
2023-11-23T20:43:01.634Z,99528.84
2023-11-23T20:45:00.152Z,99530.16
2023-11-23T20:46:57.633Z,99512.25
2023-11-23T20:48:54.079Z,99522.41
2023-11-23T20:50:49.622Z,99520.25
2023-11-23T20:52:45.513Z,99537.34
2023-11-23T20:55:16.513Z,99536.66
2023-11-23T20:57:31.699Z,99513.19
2023-11-23T20:59:30.816Z,99536.97
2023-11-23T21:01:34.821Z,99533.03
2023-11-23T21:03:31.643Z,99544.97
2023-11-23T21:05:28.598Z,99557.44
2023-11-23T21:07:25.622Z,99545.31
2023-11-23T21:09:26.308Z,99538.38
2023-11-23T21:11:24.009Z,99541.28
2023-11-23T21:13:20.119Z,99541.44
2023-11-23T21:15:16.944Z,99548.66
2023-11-23T21:17:14.074Z,99543.72
2023-11-23T21:19:09.715Z,99553.38
2023-11-23T21:21:03.177Z,99550.91
2023-11-23T21:22:58.758Z,99538.78
2023-11-23T21:24:54.797Z,99539.59
2023-11-23T21:26:47.456Z,99539.75
2023-11-23T21:28:46.572Z,99515.19
2023-11-23T21:30:42.181Z,99523.84
2023-11-23T21:32:35.418Z,99528.78
2023-11-23T21:34:30.500Z,99520.91
2023-11-23T21:36:27.381Z,99521.75
2023-11-23T21:38:22.950Z,99509.78
2023-11-23T21:40:21.308Z,99520.25
2023-11-23T21:42:18.978Z,99518.47
2023-11-23T21:44:17.100Z,99514.03
2023-11-23T21:46:09.869Z,99513.38
2023-11-23T21:48:06.143Z,99511.59
2023-11-23T21:50:03.866Z,99511.59
2023-11-23T21:51:59.490Z,99506.34
2023-11-23T21:53:55.152Z,99502.88
2023-11-23T21:55:50.588Z,99497.63
2023-11-23T21:57:45.852Z,99498.94
2023-11-23T21:59:41.431Z,99512.19
2023-11-23T22:01:36.673Z,99537.59
2023-11-23T22:03:32.661Z,99518.41
2023-11-23T22:05:28.156Z,99521.88
2023-11-23T22:07:26.999Z,99519.72
2023-11-23T22:09:22.529Z,99512.03
2023-11-23T22:11:16.680Z,99478.94
2023-11-23T22:13:12.491Z,99466.81
2023-11-23T22:15:09.290Z,99454.69
2023-11-23T22:17:04.747Z,99464.31
2023-11-23T22:18:58.241Z,99467.28
2023-11-23T22:20:53.900Z,99479.56
2023-11-23T22:22:50.848Z,99467.13
2023-11-23T22:24:46.971Z,99465.47
2023-11-23T22:26:44.244Z,99462.19
2023-11-23T22:28:40.107Z,99454.47
2023-11-23T22:30:39.086Z,99454.34
2023-11-23T22:32:36.474Z,99446.78
2023-11-23T22:34:32.541Z,99473.94
2023-11-23T22:36:25.916Z,99467.06
2023-11-23T22:38:24.051Z,99462.81
2023-11-23T22:40:18.281Z,99480.34
2023-11-23T22:42:14.597Z,99485.91
2023-11-23T22:44:10.626Z,99481.63
2023-11-23T22:46:09.679Z,99496.53
2023-11-23T22:48:05.196Z,99470.50
2023-11-23T22:50:00.402Z,99482.09
2023-11-23T22:51:55.886Z,99486.66
2023-11-23T22:53:48.476Z,99493.69
2023-11-23T22:55:43.976Z,99493.88
2023-11-23T22:57:39.044Z,99496.50
2023-11-23T22:59:34.923Z,99490.59
2023-11-23T23:01:30.200Z,99491.56
2023-11-23T23:03:25.897Z,99485.66
2023-11-23T23:05:18.460Z,99487.44
2023-11-23T23:07:13.921Z,99479.88
2023-11-23T23:09:09.170Z,99487.09
2023-11-23T23:11:04.634Z,99477.44
2023-11-23T23:12:57.868Z,99475.81
2023-11-23T23:14:53.449Z,99475.09
2023-11-23T23:16:51.293Z,99465.59
2023-11-23T23:18:47.945Z,99468.41
2023-11-23T23:20:48.089Z,99463.97
2023-11-23T23:22:43.519Z,99443.31
2023-11-23T23:24:38.820Z,99457.91
2023-11-23T23:26:34.325Z,99464.94
2023-11-23T23:28:32.472Z,99462.63
2023-11-23T23:30:29.283Z,99512.56
2023-11-23T23:32:27.417Z,99472.31
2023-11-23T23:34:22.963Z,99471.16
2023-11-23T23:36:18.099Z,99464.94
2023-11-23T23:38:13.647Z,99457.38
2023-11-23T23:40:10.672Z,99457.38
2023-11-23T23:42:06.188Z,99464.94
2023-11-23T23:43:58.722Z,99445.13
2023-11-23T23:45:54.158Z,99449.53
2023-11-23T23:47:51.926Z,99454.94
2023-11-23T23:49:45.510Z,99460.19
2023-11-23T23:51:40.811Z,99466.22
2023-11-23T23:53:36.181Z,99464.44
2023-11-23T23:55:31.328Z,99452.31
2023-11-23T23:57:28.041Z,99451.47
2023-11-23T23:59:23.089Z,99459.50
